Time;durP1;ratioP1;P1;durP2;ratioP2;P2;SDS_P1;SDS_P2;PMS_P1;PMS_P2;Temp;Humidity;BMP_temperature;BMP_pressure;BME280_temperature;BME280_humidity;BME280_pressure;Samples;Min_cycle;Max_cycle;Signal;HPM_P1;HPM_P2
2024/02/10 00:01:02;;;;;;;18.27;6.35;;;7.60;99.90;;;;;;5005714;28;20502;-66
2024/02/10 00:03:31;;;;;;;23.90;6.25;;;7.60;99.90;;;;;;5016284;28;20050;-66
2024/02/10 00:06:00;;;;;;;25.63;6.03;;;7.60;99.90;;;;;;5021983;28;20099;-66
2024/02/10 00:08:27;;;;;;;19.38;6.35;;;7.50;99.90;;;;;;5029282;28;20045;-66
2024/02/10 00:10:55;;;;;;;24.05;7.30;;;7.50;99.90;;;;;;5021752;28;20060;-66
2024/02/10 00:13:21;;;;;;;19.90;6.38;;;7.50;99.90;;;;;;5006994;28;20048;-66
2024/02/10 00:15:49;;;;;;;21.58;6.45;;;7.50;99.90;;;;;;5026590;28;20049;-66
2024/02/10 00:18:18;;;;;;;27.25;6.57;;;7.50;99.90;;;;;;5023163;28;20037;-66
2024/02/10 00:20:45;;;;;;;15.35;6.22;;;7.40;99.90;;;;;;5005467;28;20284;-66
2024/02/10 00:23:13;;;;;;;21.67;6.32;;;7.40;99.90;;;;;;5005145;28;20674;-66
2024/02/10 00:25:39;;;;;;;26.67;6.15;;;7.40;99.90;;;;;;5021802;28;20338;-66
2024/02/10 00:28:06;;;;;;;30.30;6.75;;;7.30;99.90;;;;;;5006499;28;20065;-66
2024/02/10 00:30:32;;;;;;;21.85;6.57;;;7.30;99.90;;;;;;5014105;28;20057;-66
2024/02/10 00:32:59;;;;;;;19.55;6.20;;;7.30;99.90;;;;;;5021752;28;20049;-66
2024/02/10 00:35:25;;;;;;;15.85;6.25;;;7.30;99.90;;;;;;5012791;28;20059;-65
2024/02/10 00:37:54;;;;;;;25.30;7.18;;;7.30;99.90;;;;;;5019865;28;20480;-67
2024/02/10 00:40:20;;;;;;;19.80;6.95;;;7.40;99.90;;;;;;5022020;28;20045;-66
2024/02/10 00:42:46;;;;;;;36.53;8.02;;;7.30;99.90;;;;;;5024367;28;20049;-66
2024/02/10 00:45:12;;;;;;;24.63;6.65;;;7.40;99.90;;;;;;5037323;28;20106;-66
2024/02/10 00:47:37;;;;;;;21.88;6.78;;;7.40;99.90;;;;;;5035493;28;20045;-66
2024/02/10 00:50:03;;;;;;;33.85;7.65;;;7.40;99.90;;;;;;5021941;28;20384;-65
2024/02/10 00:52:29;;;;;;;19.08;8.68;;;7.40;99.90;;;;;;5028401;28;20045;-66
2024/02/10 00:54:58;;;;;;;17.08;6.47;;;7.30;99.90;;;;;;5023923;28;20044;-66
2024/02/10 00:57:28;;;;;;;22.38;6.50;;;7.30;99.90;;;;;;5011624;28;20274;-66
2024/02/10 00:59:56;;;;;;;;;;;7.30;99.90;;;;;;5023222;28;20046;-66
2024/02/10 01:02:22;;;;;;;26.38;7.53;;;7.30;99.90;;;;;;5026643;28;19924;-66
2024/02/10 01:04:48;;;;;;;20.92;6.90;;;7.10;99.90;;;;;;5026419;28;20060;-65
2024/02/10 01:07:15;;;;;;;20.20;6.90;;;7.20;99.90;;;;;;5020197;28;20056;-66
2024/02/10 01:09:46;;;;;;;20.73;6.65;;;7.10;99.90;;;;;;5014611;28;20048;-66
2024/02/10 01:12:16;;;;;;;22.23;7.45;;;7.10;99.90;;;;;;5030103;28;20506;-66
2024/02/10 01:14:42;;;;;;;26.40;7.25;;;7.10;99.90;;;;;;5025729;28;20076;-66
2024/02/10 01:17:12;;;;;;;16.45;6.55;;;7.10;99.90;;;;;;5021450;28;20061;-66
2024/02/10 01:19:46;;;;;;;19.10;6.68;;;7.10;99.90;;;;;;5016007;28;20056;-66
2024/02/10 01:22:22;;;;;;;22.50;7.72;;;7.00;99.90;;;;;;5023723;28;20053;-66
2024/02/10 01:24:53;;;;;;;15.15;6.53;;;6.90;99.90;;;;;;5032455;28;20489;-66
2024/02/10 01:27:26;;;;;;;14.18;6.93;;;6.80;99.90;;;;;;5021259;28;20108;-66
2024/02/10 01:30:07;;;;;;;21.70;7.97;;;6.90;99.90;;;;;;5021332;28;20120;-66
2024/02/10 01:32:33;;;;;;;30.75;7.45;;;6.80;99.90;;;;;;5020535;28;20045;-66
2024/02/10 01:34:59;;;;;;;22.00;7.20;;;6.80;99.90;;;;;;5021500;28;20493;-66
2024/02/10 01:37:24;;;;;;;29.02;8.63;;;6.90;99.90;;;;;;5019636;28;20041;-66
2024/02/10 01:39:55;;;;;;;22.02;8.80;;;6.90;99.90;;;;;;5023638;28;20123;-66
2024/02/10 01:42:38;;;;;;;24.55;9.43;;;6.90;99.90;;;;;;5003002;28;20057;-66
2024/02/10 01:45:11;;;;;;;18.55;8.55;;;7.00;99.90;;;;;;5018895;28;20033;-66
2024/02/10 01:47:39;;;;;;;26.73;8.52;;;7.00;99.90;;;;;;5016382;28;20056;-66
2024/02/10 01:50:06;;;;;;;24.60;8.80;;;7.00;99.90;;;;;;5028326;28;20038;-66
2024/02/10 01:52:37;;;;;;;24.27;8.18;;;7.10;99.90;;;;;;5028249;28;20136;-66
2024/02/10 01:55:10;;;;;;;24.95;9.00;;;7.10;99.90;;;;;;5024811;28;20056;-66
2024/02/10 01:57:36;;;;;;;23.10;8.32;;;7.20;99.90;;;;;;5006258;28;20045;-66
2024/02/10 02:00:06;;;;;;;36.13;9.52;;;7.20;99.90;;;;;;5028226;28;20381;-66
2024/02/10 02:02:35;;;;;;;17.38;8.88;;;7.30;99.90;;;;;;5009400;28;20419;-66
2024/02/10 02:05:04;;;;;;;31.30;8.90;;;7.20;99.90;;;;;;5011573;28;20085;-66
2024/02/10 02:07:33;;;;;;;21.60;7.97;;;7.40;99.90;;;;;;5024157;28;20064;-66
2024/02/10 02:10:00;;;;;;;27.17;8.10;;;7.40;99.90;;;;;;5020649;28;20470;-66
2024/02/10 02:12:26;;;;;;;32.95;8.68;;;7.60;99.90;;;;;;5019368;28;20056;-66
2024/02/10 02:14:53;;;;;;;33.10;8.93;;;7.70;99.90;;;;;;5026919;28;20045;-66
2024/02/10 02:17:19;;;;;;;25.45;8.52;;;7.80;99.90;;;;;;5028028;28;20061;-65
2024/02/10 02:19:45;;;;;;;19.67;8.65;;;7.80;99.90;;;;;;5005107;28;20180;-66
2024/02/10 02:22:13;;;;;;;21.55;8.90;;;7.90;99.90;;;;;;5010307;28;20049;-66
2024/02/10 02:24:39;;;;;;;26.05;9.27;;;7.90;99.90;;;;;;5024807;28;20037;-66
2024/02/10 02:27:09;;;;;;;27.83;8.75;;;8.00;99.90;;;;;;5033841;28;20037;-66
2024/02/10 02:29:35;;;;;;;29.85;9.30;;;7.90;99.90;;;;;;5009833;28;20054;-66
2024/02/10 02:32:01;;;;;;;31.90;9.63;;;7.80;99.90;;;;;;5024114;28;20076;-66
2024/02/10 02:34:27;;;;;;;27.48;9.13;;;7.80;99.90;;;;;;5009040;28;20076;-65
2024/02/10 02:36:53;;;;;;;46.40;8.73;;;7.80;99.90;;;;;;5000997;28;20046;-66
2024/02/10 02:39:22;;;;;;;32.78;8.90;;;7.80;99.90;;;;;;5026782;28;20044;-66
2024/02/10 02:41:49;;;;;;;25.25;8.88;;;7.80;99.90;;;;;;5023128;28;20030;-66
2024/02/10 02:44:15;;;;;;;25.88;8.50;;;7.80;99.90;;;;;;5008958;28;20057;-65
2024/02/10 02:46:42;;;;;;;25.33;9.48;;;7.90;99.90;;;;;;5023381;28;20086;-66
2024/02/10 02:49:08;;;;;;;21.63;8.65;;;7.90;99.90;;;;;;5025497;28;20060;-65
2024/02/10 02:51:35;;;;;;;33.13;9.27;;;7.90;99.90;;;;;;5024298;28;20114;-66
2024/02/10 02:54:02;;;;;;;40.60;8.85;;;7.80;99.90;;;;;;5037273;28;20081;-66
2024/02/10 02:56:28;;;;;;;24.92;9.02;;;7.80;99.90;;;;;;5029465;28;20569;-66
2024/02/10 02:58:54;;;;;;;29.55;8.55;;;7.80;99.90;;;;;;5026557;28;20032;-66
2024/02/10 03:01:24;;;;;;;31.65;9.18;;;7.80;99.90;;;;;;5006073;28;20106;-66
2024/02/10 03:03:50;;;;;;;32.42;10.02;;;7.80;99.90;;;;;;5031377;28;20034;-66
2024/02/10 03:06:20;;;;;;;21.48;9.27;;;7.80;99.90;;;;;;5006418;28;20045;-66
2024/02/10 03:08:46;;;;;;;25.33;8.07;;;7.80;99.90;;;;;;5023542;28;20576;-66
2024/02/10 03:11:18;;;;;;;22.05;7.80;;;7.80;99.90;;;;;;5035136;28;20045;-66
2024/02/10 03:13:48;;;;;;;25.33;9.05;;;7.80;99.90;;;;;;5024654;28;20442;-66
2024/02/10 03:16:17;;;;;;;19.67;8.25;;;8.00;99.90;;;;;;5025645;28;20053;-66
2024/02/10 03:18:47;;;;;;;30.13;8.60;;;8.00;99.90;;;;;;5027205;28;20128;-66
2024/02/10 03:21:13;;;;;;;24.23;9.48;;;8.00;99.90;;;;;;5004795;28;20456;-66
2024/02/10 03:23:40;;;;;;;19.70;8.27;;;8.00;99.90;;;;;;5007320;28;20132;-66
2024/02/10 03:26:06;;;;;;;24.27;8.45;;;7.90;99.90;;;;;;5025030;28;20046;-66
2024/02/10 03:28:35;;;;;;;31.08;8.57;;;8.00;99.90;;;;;;5023425;28;20128;-65
2024/02/10 03:31:04;;;;;;;29.55;9.02;;;8.00;99.90;;;;;;5023009;28;20056;-65
2024/02/10 03:33:32;;;;;;;29.75;8.68;;;7.90;99.90;;;;;;5004779;28;20053;-66
2024/02/10 03:36:03;;;;;;;21.65;8.93;;;7.90;99.90;;;;;;5005356;28;20041;-66
2024/02/10 03:38:28;;;;;;;23.38;8.93;;;8.00;99.90;;;;;;5009672;28;20046;-66
2024/02/10 03:40:54;;;;;;;24.42;8.60;;;8.00;99.90;;;;;;5025422;28;20040;-66
2024/02/10 03:43:27;;;;;;;28.63;8.77;;;8.10;99.90;;;;;;5026239;28;20049;-66
2024/02/10 03:45:56;;;;;;;24.80;8.93;;;8.00;99.90;;;;;;5024697;28;20126;-66
2024/02/10 03:48:22;;;;;;;33.63;9.88;;;8.00;99.90;;;;;;5003604;28;20062;-66
2024/02/10 03:50:49;;;;;;;22.38;8.55;;;8.00;99.90;;;;;;5011713;28;20056;-65
2024/02/10 03:53:17;;;;;;;28.05;9.02;;;8.00;99.90;;;;;;5019534;28;20198;-66
2024/02/10 03:55:43;;;;;;;30.00;9.02;;;8.00;99.90;;;;;;5005104;28;20171;-66
2024/02/10 03:58:09;;;;;;;30.10;9.07;;;8.00;99.90;;;;;;5006150;28;20077;-66
2024/02/10 04:00:39;;;;;;;25.73;8.88;;;8.10;99.90;;;;;;5011808;28;20053;-66
2024/02/10 04:03:09;;;;;;;18.52;8.75;;;8.00;99.90;;;;;;5009481;28;20059;-66
2024/02/10 04:05:39;;;;;;;;;;;8.00;99.90;;;;;;4994614;28;20515;-66
2024/02/10 04:08:06;;;;;;;27.48;8.63;;;8.20;99.90;;;;;;5002047;28;19926;-65
2024/02/10 04:10:32;;;;;;;28.63;8.13;;;8.20;99.90;;;;;;5011375;28;20119;-66
2024/02/10 04:12:58;;;;;;;21.88;8.52;;;8.20;99.90;;;;;;5002230;28;20422;-66
2024/02/10 04:15:24;;;;;;;25.05;8.43;;;8.20;99.90;;;;;;5005816;28;20049;-66
2024/02/10 04:17:52;;;;;;;28.98;8.85;;;8.20;99.90;;;;;;5003165;28;20133;-66
2024/02/10 04:20:20;;;;;;;18.80;7.40;;;8.20;99.90;;;;;;5001075;28;20053;-66
2024/02/10 04:22:49;;;;;;;21.48;8.40;;;8.20;99.90;;;;;;5009432;28;20052;-66
2024/02/10 04:25:15;;;;;;;27.00;9.07;;;8.20;99.90;;;;;;5002598;28;20041;-66
2024/02/10 04:27:41;;;;;;;21.83;9.18;;;8.20;99.90;;;;;;5007650;28;20930;-66
2024/02/10 04:30:10;;;;;;;19.30;8.25;;;8.20;99.90;;;;;;4997052;28;20038;-65
2024/02/10 04:32:47;;;;;;;29.10;9.23;;;8.10;99.90;;;;;;4998704;28;20050;-66
2024/02/10 04:35:14;;;;;;;16.52;8.23;;;8.20;99.90;;;;;;5004396;28;20048;-66
2024/02/10 04:37:48;;;;;;;19.63;8.75;;;8.20;99.90;;;;;;5002028;28;20039;-66
2024/02/10 04:40:17;;;;;;;24.90;9.13;;;8.30;99.90;;;;;;4992713;28;20056;-66
2024/02/10 04:42:43;;;;;;;18.52;8.50;;;8.30;99.90;;;;;;4996933;28;20041;-66
2024/02/10 04:45:09;;;;;;;15.48;7.72;;;8.20;99.90;;;;;;5003158;28;20132;-66
2024/02/10 04:47:35;;;;;;;16.65;8.15;;;8.40;99.90;;;;;;5002028;28;20057;-65
2024/02/10 04:50:04;;;;;;;25.60;8.65;;;8.30;99.90;;;;;;5022183;28;20049;-66
2024/02/10 04:52:30;;;;;;;26.02;9.27;;;8.30;99.90;;;;;;5022021;28;20053;-65
2024/02/10 04:54:55;;;;;;;25.17;10.57;;;8.30;99.90;;;;;;5021271;28;20091;-66
2024/02/10 04:57:28;;;;;;;35.50;9.50;;;8.20;99.90;;;;;;5022591;28;20168;-66
2024/02/10 04:59:55;;;;;;;31.30;10.07;;;8.20;99.90;;;;;;5003371;28;20099;-65
2024/02/10 05:02:23;;;;;;;21.90;9.40;;;8.20;99.90;;;;;;5021954;28;20042;-66
2024/02/10 05:04:51;;;;;;;30.85;9.55;;;8.20;99.90;;;;;;5021355;28;20119;-66
2024/02/10 05:07:18;;;;;;;26.83;10.40;;;8.20;99.90;;;;;;5022036;28;20038;-66
2024/02/10 05:09:44;;;;;;;29.20;10.23;;;8.20;99.90;;;;;;5004436;28;20402;-66
2024/02/10 05:12:10;;;;;;;23.52;9.45;;;8.20;99.90;;;;;;5002512;28;20413;-66
2024/02/10 05:14:36;;;;;;;26.33;9.70;;;8.20;99.90;;;;;;5022776;28;20042;-66
2024/02/10 05:17:02;;;;;;;32.22;10.23;;;8.10;99.90;;;;;;5021012;28;20085;-66
2024/02/10 05:19:28;;;;;;;26.85;10.52;;;8.20;99.90;;;;;;5022205;28;20077;-66
2024/02/10 05:21:57;;;;;;;29.20;10.57;;;8.20;99.90;;;;;;5021215;28;20474;-65
2024/02/10 05:24:24;;;;;;;31.08;11.00;;;8.10;99.90;;;;;;5008517;28;20049;-65
2024/02/10 05:26:49;;;;;;;28.05;10.35;;;8.10;99.90;;;;;;5008727;28;20044;-66
2024/02/10 05:29:18;;;;;;;23.40;10.30;;;8.10;99.90;;;;;;5006787;28;20041;-65
2024/02/10 05:31:47;;;;;;;29.58;9.68;;;8.10;99.90;;;;;;5029112;28;20064;-66
2024/02/10 05:34:14;;;;;;;24.10;9.50;;;8.10;99.90;;;;;;5007170;28;20053;-66
2024/02/10 05:36:41;;;;;;;28.00;10.02;;;8.00;99.90;;;;;;5026068;28;20287;-66
2024/02/10 05:39:07;;;;;;;28.90;10.25;;;8.10;99.90;;;;;;5006878;28;20834;-66
2024/02/10 05:41:33;;;;;;;24.73;9.02;;;8.10;99.90;;;;;;5026168;28;20041;-66
2024/02/10 05:43:59;;;;;;;25.83;9.25;;;8.10;99.90;;;;;;5025487;28;20041;-66
2024/02/10 05:46:25;;;;;;;33.53;9.77;;;8.00;99.90;;;;;;5025286;28;20048;-66
2024/02/10 05:48:51;;;;;;;25.20;9.65;;;8.10;99.90;;;;;;5026105;28;20456;-66
2024/02/10 05:51:22;;;;;;;25.15;9.48;;;8.00;99.90;;;;;;5024175;28;20061;-66
2024/02/10 05:53:49;;;;;;;22.92;9.65;;;8.10;99.90;;;;;;5023487;28;20053;-65
2024/02/10 05:56:16;;;;;;;30.20;9.68;;;8.00;99.90;;;;;;5023486;28;20045;-66
2024/02/10 05:58:45;;;;;;;34.72;9.73;;;8.00;99.90;;;;;;5008046;28;20029;-66
2024/02/10 06:01:13;;;;;;;21.55;9.73;;;8.00;99.90;;;;;;5025130;28;20108;-66
2024/02/10 06:03:42;;;;;;;25.55;9.40;;;8.00;99.90;;;;;;5024394;28;20045;-66
2024/02/10 06:06:08;;;;;;;27.73;9.98;;;8.00;99.90;;;;;;5008174;28;20060;-66
2024/02/10 06:08:37;;;;;;;25.17;9.50;;;7.90;99.90;;;;;;5023820;28;20506;-66
2024/02/10 06:11:04;;;;;;;31.83;9.40;;;7.90;99.90;;;;;;5026262;28;20479;-66
2024/02/10 06:13:32;;;;;;;27.98;9.85;;;7.90;99.90;;;;;;5023292;28;20250;-66
2024/02/10 06:15:58;;;;;;;27.48;9.02;;;7.90;99.90;;;;;;5025508;28;20041;-66
2024/02/10 06:18:27;;;;;;;26.70;9.32;;;7.90;99.90;;;;;;5034910;28;20042;-66
2024/02/10 06:20:54;;;;;;;22.73;8.93;;;7.90;99.90;;;;;;5024552;28;20076;-66
2024/02/10 06:23:25;;;;;;;19.42;8.30;;;7.80;99.90;;;;;;5025028;28;20041;-66
2024/02/10 06:25:54;;;;;;;18.17;8.18;;;7.90;99.90;;;;;;5006189;28;20089;-66
2024/02/10 06:28:21;;;;;;;32.63;8.67;;;7.90;99.90;;;;;;5007172;28;20053;-66
2024/02/10 06:30:51;;;;;;;25.63;8.80;;;8.00;99.90;;;;;;4989393;28;20045;-66
2024/02/10 06:33:19;;;;;;;19.40;8.30;;;8.00;99.90;;;;;;5024380;28;20054;-66
2024/02/10 06:35:47;;;;;;;21.35;8.30;;;8.10;99.90;;;;;;5023590;28;20049;-66
2024/02/10 06:38:17;;;;;;;20.35;8.15;;;8.10;99.90;;;;;;5023964;28;20045;-66
2024/02/10 06:40:43;;;;;;;17.35;7.70;;;8.20;99.90;;;;;;5025510;28;20049;-65
2024/02/10 06:43:12;;;;;;;15.73;8.18;;;8.10;99.90;;;;;;5023108;28;20060;-66
2024/02/10 06:45:47;;;;;;;20.17;8.25;;;8.20;99.90;;;;;;5006637;28;20136;-65
2024/02/10 06:48:13;;;;;;;21.38;8.93;;;8.20;99.90;;;;;;5004906;28;20493;-66
2024/02/10 06:50:40;;;;;;;25.42;8.23;;;8.20;99.90;;;;;;5007260;28;20080;-66
2024/02/10 06:53:06;;;;;;;18.98;8.32;;;8.20;99.90;;;;;;4989998;28;20052;-66
2024/02/10 06:55:33;;;;;;;24.80;8.25;;;8.20;99.90;;;;;;5023524;28;20080;-65
2024/02/10 06:58:02;;;;;;;32.40;9.35;;;8.30;99.90;;;;;;5031806;28;20123;-66
2024/02/10 07:00:30;;;;;;;21.83;9.52;;;8.30;99.90;;;;;;5023200;28;20061;-66
2024/02/10 07:02:56;;;;;;;24.10;9.02;;;8.30;99.90;;;;;;5024944;28;20059;-66
2024/02/10 07:05:23;;;;;;;26.58;9.07;;;8.30;99.90;;;;;;5023043;28;20456;-66
2024/02/10 07:07:49;;;;;;;26.85;9.50;;;8.30;99.90;;;;;;5004169;28;20044;-65
2024/02/10 07:10:17;;;;;;;25.00;9.23;;;8.30;99.90;;;;;;5023226;28;20052;-65
2024/02/10 07:12:45;;;;;;;26.55;9.27;;;8.30;99.90;;;;;;5017633;28;20041;-65
2024/02/10 07:15:22;;;;;;;22.00;8.85;;;8.30;99.90;;;;;;5024717;28;20413;-65
2024/02/10 07:17:50;;;;;;;29.08;10.00;;;8.30;99.90;;;;;;5005408;28;20385;-65
2024/02/10 07:20:30;;;;;;;27.15;8.88;;;8.30;99.90;;;;;;5024259;28;20053;-65
2024/02/10 07:22:58;;;;;;;;;;;8.20;99.90;;;;;;5023680;28;20041;-66
2024/02/10 07:25:28;;;;;;;19.25;8.35;;;8.20;99.90;;;;;;5023753;28;19932;-66
2024/02/10 07:28:01;;;;;;;19.25;9.23;;;8.20;99.90;;;;;;5006317;28;20057;-66
2024/02/10 07:30:31;;;;;;;18.80;8.13;;;8.20;99.90;;;;;;5022143;28;20040;-66
2024/02/10 07:33:03;;;;;;;18.08;9.88;;;8.20;99.90;;;;;;5024159;28;20447;-66
2024/02/10 07:35:32;;;;;;;22.10;9.43;;;8.30;99.90;;;;;;5022212;28;20084;-65
2024/02/10 07:37:58;;;;;;;22.70;9.68;;;8.30;99.90;;;;;;5006617;28;20523;-66
2024/02/10 07:40:24;;;;;;;19.45;9.60;;;8.30;99.90;;;;;;5004775;28;20045;-65
2024/02/10 07:42:52;;;;;;;24.00;10.20;;;8.40;99.90;;;;;;5023075;28;20049;-65
2024/02/10 07:45:18;;;;;;;31.83;10.15;;;8.40;99.90;;;;;;5023548;28;20049;-65
2024/02/10 07:47:47;;;;;;;19.83;9.93;;;8.30;99.90;;;;;;5022165;28;20079;-66
2024/02/10 07:50:14;;;;;;;24.65;10.07;;;8.40;99.90;;;;;;5023591;28;20133;-66
2024/02/10 07:52:41;;;;;;;27.58;11.07;;;8.40;99.90;;;;;;5020651;28;20471;-66
2024/02/10 07:55:12;;;;;;;18.73;9.82;;;8.40;99.90;;;;;;5023845;28;20049;-66
2024/02/10 07:57:39;;;;;;;27.67;11.27;;;8.40;99.90;;;;;;5022655;28;20053;-66
2024/02/10 08:00:05;;;;;;;24.10;10.00;;;8.40;99.90;;;;;;5022993;28;20053;-66
2024/02/10 08:02:33;;;;;;;20.90;11.10;;;8.40;99.90;;;;;;5019677;28;20045;-66
2024/02/10 08:05:00;;;;;;;24.73;11.20;;;8.50;99.90;;;;;;5021823;28;20049;-65
2024/02/10 08:07:29;;;;;;;32.38;11.50;;;8.50;99.90;;;;;;5019497;28;20067;-66
2024/02/10 08:09:56;;;;;;;34.40;11.93;;;8.60;99.90;;;;;;5020112;28;20045;-66
2024/02/10 08:12:25;;;;;;;28.85;10.82;;;8.50;99.90;;;;;;5023604;28;20513;-66
2024/02/10 08:14:52;;;;;;;30.83;12.30;;;8.50;99.90;;;;;;5004133;28;20140;-65
2024/02/10 08:17:26;;;;;;;27.00;11.85;;;8.60;99.90;;;;;;5023001;28;20047;-66
2024/02/10 08:19:56;;;;;;;27.88;11.00;;;8.60;99.90;;;;;;5005334;28;20132;-66
2024/02/10 08:22:26;;;;;;;23.25;10.30;;;8.70;99.90;;;;;;5015365;28;20049;-66
2024/02/10 08:24:55;;;;;;;24.27;10.85;;;8.70;99.90;;;;;;5022778;28;20045;-65
2024/02/10 08:27:25;;;;;;;28.73;12.03;;;8.70;99.90;;;;;;5020848;28;20553;-66
2024/02/10 08:29:54;;;;;;;24.58;11.48;;;8.70;99.90;;;;;;5020947;28;20510;-66
2024/02/10 08:32:20;;;;;;;29.70;12.57;;;8.70;99.90;;;;;;5021332;28;20045;-66
2024/02/10 08:34:46;;;;;;;30.27;12.88;;;8.80;99.90;;;;;;5022068;28;20078;-66
2024/02/10 08:37:13;;;;;;;25.52;11.52;;;8.80;99.90;;;;;;5005515;28;20128;-66
2024/02/10 08:39:43;;;;;;;27.45;11.82;;;8.90;99.90;;;;;;5020898;28;20464;-66
2024/02/10 08:42:10;;;;;;;28.88;12.38;;;8.80;99.90;;;;;;5022664;28;20053;-66
2024/02/10 08:44:39;;;;;;;28.38;11.70;;;8.80;99.90;;;;;;5020957;28;20425;-66
2024/02/10 08:47:06;;;;;;;26.55;11.93;;;8.90;99.90;;;;;;5010554;28;20435;-66
2024/02/10 08:49:36;;;;;;;25.35;12.13;;;9.00;99.90;;;;;;5021139;28;20049;-66
2024/02/10 08:52:03;;;;;;;33.17;12.13;;;9.00;99.90;;;;;;5010665;28;20183;-66
2024/02/10 08:54:30;;;;;;;32.92;12.65;;;9.00;99.90;;;;;;5023062;28;20042;-66
2024/02/10 08:57:03;;;;;;;33.08;12.52;;;9.00;99.90;;;;;;5020145;28;20471;-66
2024/02/10 08:59:32;;;;;;;35.83;12.77;;;9.00;99.90;;;;;;5021852;28;20080;-66
2024/02/10 09:02:02;;;;;;;31.40;12.80;;;9.00;99.90;;;;;;5022275;28;20049;-66
2024/02/10 09:04:29;;;;;;;32.92;13.00;;;9.00;99.90;;;;;;5015456;28;20061;-66
2024/02/10 09:06:55;;;;;;;32.17;13.25;;;9.00;99.90;;;;;;5020303;28;20049;-66
2024/02/10 09:09:21;;;;;;;40.25;13.73;;;9.00;99.90;;;;;;5015528;28;20500;-66
2024/02/10 09:11:47;;;;;;;39.50;13.82;;;9.10;99.90;;;;;;4994968;28;20433;-65
2024/02/10 09:14:13;;;;;;;36.92;14.23;;;9.10;99.90;;;;;;5021563;28;20447;-66
2024/02/10 09:16:39;;;;;;;30.10;13.57;;;9.20;99.90;;;;;;5004952;28;20053;-66
2024/02/10 09:19:05;;;;;;;42.67;14.55;;;9.10;99.90;;;;;;5020307;28;20499;-65
2024/02/10 09:21:31;;;;;;;37.15;14.82;;;9.20;99.90;;;;;;5021831;28;20064;-65
2024/02/10 09:23:59;;;;;;;40.15;15.13;;;9.20;99.90;;;;;;5021236;28;20081;-65
2024/02/10 09:26:25;;;;;;;43.90;15.25;;;9.30;99.90;;;;;;5021703;28;20479;-65
2024/02/10 09:28:51;;;;;;;41.70;14.45;;;9.30;99.90;;;;;;5021668;28;20102;-65
2024/02/10 09:31:19;;;;;;;36.92;16.33;;;9.30;99.90;;;;;;5020898;28;20463;-65
2024/02/10 09:33:45;;;;;;;40.42;15.13;;;9.30;99.90;;;;;;5022022;28;20065;-65
2024/02/10 09:36:16;;;;;;;44.72;14.80;;;9.40;99.90;;;;;;5002514;28;20053;-65
2024/02/10 09:38:43;;;;;;;43.83;14.48;;;9.40;99.90;;;;;;5021445;28;20464;-65
2024/02/10 09:41:12;;;;;;;50.28;15.40;;;9.50;99.90;;;;;;5021115;28;20077;-65
2024/02/10 09:43:43;;;;;;;41.42;15.57;;;9.40;99.90;;;;;;5022107;28;20428;-65
2024/02/10 09:46:10;;;;;;;41.97;15.55;;;9.50;99.90;;;;;;4981847;28;20045;-65
2024/02/10 09:48:46;;;;;;;39.08;16.05;;;9.50;99.90;;;;;;5018130;28;20053;-65
2024/02/10 09:51:12;;;;;;;38.47;15.07;;;9.50;99.90;;;;;;5020906;28;20061;-65
2024/02/10 09:53:41;;;;;;;49.40;16.50;;;9.60;99.90;;;;;;5020754;28;20457;-65
2024/02/10 09:56:13;;;;;;;47.03;17.90;;;9.70;99.90;;;;;;5022631;28;20051;-65
2024/02/10 09:58:41;;;;;;;46.33;16.80;;;9.70;99.90;;;;;;5021716;28;20116;-66
2024/02/10 10:01:11;;;;;;;48.72;15.93;;;9.80;99.90;;;;;;5021796;28;20049;-65
2024/02/10 10:03:37;;;;;;;51.90;16.67;;;9.80;99.90;;;;;;5022248;28;20045;-65
2024/02/10 10:06:10;;;;;;;46.20;17.60;;;9.80;99.90;;;;;;4985952;28;20124;-65
2024/02/10 10:08:41;;;;;;;47.05;15.95;;;9.90;99.90;;;;;;5023297;28;20108;-65
2024/02/10 10:11:08;;;;;;;47.58;16.27;;;9.90;99.90;;;;;;5020711;28;20377;-65
2024/02/10 10:13:38;;;;;;;47.42;16.67;;;9.90;99.90;;;;;;5006286;28;20548;-65
2024/02/10 10:16:07;;;;;;;51.67;17.00;;;10.00;99.90;;;;;;5022901;28;20049;-66
2024/02/10 10:18:35;;;;;;;44.78;17.45;;;10.10;99.90;;;;;;5023557;28;20448;-65
2024/02/10 10:21:04;;;;;;;51.50;16.92;;;10.10;99.90;;;;;;5023521;28;20053;-65
2024/02/10 10:23:31;;;;;;;43.95;15.98;;;10.20;99.90;;;;;;5022277;28;20056;-65
2024/02/10 10:26:03;;;;;;;50.85;17.25;;;10.20;99.90;;;;;;5023746;28;20060;-65
2024/02/10 10:28:33;;;;;;;65.15;19.83;;;10.20;99.90;;;;;;5006326;28;20044;-65
2024/02/10 10:30:59;;;;;;;66.97;20.13;;;10.20;99.90;;;;;;5023917;28;20049;-65
2024/02/10 10:33:26;;;;;;;62.40;19.48;;;10.40;99.90;;;;;;5024850;28;20457;-65
2024/02/10 10:35:54;;;;;;;55.55;19.00;;;10.40;99.90;;;;;;5024015;28;20106;-65
2024/02/10 10:38:24;;;;;;;53.38;18.40;;;10.50;99.90;;;;;;5007622;28;20044;-65
2024/02/10 10:40:53;;;;;;;59.03;18.07;;;10.50;99.90;;;;;;5023705;28;20076;-65
2024/02/10 10:43:26;;;;;;;59.80;17.98;;;10.60;99.90;;;;;;5012633;28;20839;-65
2024/02/10 10:45:52;;;;;;;52.83;14.95;;;10.60;99.90;;;;;;5005805;28;20064;-65
2024/02/10 10:48:18;;;;;;;52.42;18.30;;;10.70;99.90;;;;;;4994131;28;20579;-65
2024/02/10 10:50:44;;;;;;;51.35;18.30;;;10.70;99.90;;;;;;5030010;28;20065;-65
2024/02/10 10:53:10;;;;;;;54.08;17.67;;;10.80;99.90;;;;;;5020519;28;20044;-65
2024/02/10 10:55:43;;;;;;;59.95;19.10;;;10.90;99.90;;;;;;5025069;28;20129;-65
2024/02/10 10:58:13;;;;;;;60.92;18.50;;;11.00;99.90;;;;;;5022623;28;20256;-65
2024/02/10 11:00:41;;;;;;;63.65;20.48;;;11.10;99.90;;;;;;5025024;28;20033;-65
2024/02/10 11:03:07;;;;;;;55.90;20.13;;;11.30;99.90;;;;;;5010598;28;20044;-64
2024/02/10 11:05:39;;;;;;;61.60;20.02;;;11.20;99.90;;;;;;5007484;28;20438;-65
2024/02/10 11:08:06;;;;;;;57.75;19.40;;;11.20;99.90;;;;;;5023824;28;20037;-64
2024/02/10 11:10:44;;;;;;;62.25;20.25;;;11.30;99.90;;;;;;5021594;28;20450;-64
2024/02/10 11:13:22;;;;;;;56.42;18.48;;;11.30;99.90;;;;;;5022296;28;20041;-64
2024/02/10 11:16:05;;;;;;;51.83;16.90;;;11.40;99.90;;;;;;5022882;28;20053;-64
2024/02/10 11:18:33;;;;;;;54.65;17.27;;;11.40;99.90;;;;;;5023455;28;20510;-64
2024/02/10 11:21:09;;;;;;;49.03;18.05;;;11.50;99.90;;;;;;5022747;28;20508;-64
2024/02/10 11:23:35;;;;;;;50.83;17.50;;;11.60;99.90;;;;;;5022705;28;20146;-64
2024/02/10 11:26:03;;;;;;;48.00;16.52;;;11.60;99.90;;;;;;5024315;28;20601;-64
2024/02/10 11:28:34;;;;;;;44.15;15.77;;;11.60;99.90;;;;;;5022567;28;20072;-64
2024/02/10 11:31:09;;;;;;;41.70;16.33;;;11.70;99.90;;;;;;5024061;28;20057;-64
2024/02/10 11:33:35;;;;;;;44.00;16.95;;;11.80;99.90;;;;;;5022721;28;20041;-64
2024/02/10 11:36:02;;;;;;;31.83;13.68;;;11.80;99.90;;;;;;5004961;28;20096;-64
2024/02/10 11:38:28;;;;;;;43.95;14.18;;;11.90;99.90;;;;;;5024073;28;20033;-64
2024/02/10 11:40:55;;;;;;;34.90;13.30;;;12.00;99.90;;;;;;5020239;28;20550;-64
2024/02/10 11:43:21;;;;;;;38.63;13.80;;;12.10;99.90;;;;;;5004599;28;20052;-64
2024/02/10 11:45:49;;;;;;;30.17;11.20;;;12.10;99.90;;;;;;5020921;28;20515;-64
2024/02/10 11:48:15;;;;;;;25.33;9.82;;;12.10;99.90;;;;;;5022844;28;20128;-64
2024/02/10 11:50:44;;;;;;;25.35;11.90;;;12.10;99.90;;;;;;5004110;28;20425;-64
2024/02/10 11:53:14;;;;;;;35.45;14.65;;;12.10;99.90;;;;;;5004971;28;20072;-64
2024/02/10 11:55:41;;;;;;;36.78;15.30;;;12.20;99.90;;;;;;5004515;28;20049;-64
2024/02/10 11:58:18;;;;;;;38.58;17.35;;;12.20;99.90;;;;;;5020429;28;20416;-64
2024/02/10 12:00:47;;;;;;;41.80;17.08;;;12.30;99.90;;;;;;5005236;28;20515;-64
2024/02/10 12:03:16;;;;;;;32.72;14.77;;;12.30;99.90;;;;;;5017893;28;20126;-64
2024/02/10 12:05:42;;;;;;;42.72;19.55;;;12.30;99.90;;;;;;5022781;28;20052;-64
2024/02/10 12:08:09;;;;;;;41.58;16.73;;;12.40;99.90;;;;;;5017925;28;20501;-64
2024/02/10 12:10:38;;;;;;;37.30;16.30;;;12.40;99.90;;;;;;5020970;28;20052;-64
2024/02/10 12:13:05;;;;;;;43.40;17.88;;;12.30;99.90;;;;;;5023043;28;20052;-64
2024/02/10 12:15:34;;;;;;;41.58;16.88;;;12.30;99.90;;;;;;5021803;28;20053;-64
2024/02/10 12:18:01;;;;;;;38.85;17.33;;;12.40;99.90;;;;;;5005067;28;20479;-64
2024/02/10 12:20:29;;;;;;;43.20;17.23;;;12.40;99.90;;;;;;5021777;28;20491;-64
2024/02/10 12:22:55;;;;;;;37.55;16.88;;;12.50;99.90;;;;;;5023520;28;20053;-64
2024/02/10 12:25:22;;;;;;;33.40;15.45;;;12.50;99.90;;;;;;5021866;28;20084;-64
2024/02/10 12:27:50;;;;;;;34.13;14.73;;;12.40;99.90;;;;;;5022412;28;20554;-64
2024/02/10 12:30:16;;;;;;;34.63;14.68;;;12.40;99.90;;;;;;5022713;28;20491;-64
2024/02/10 12:32:42;;;;;;;28.98;14.25;;;12.30;99.90;;;;;;5020380;28;20045;-64
2024/02/10 12:35:16;;;;;;;34.72;14.93;;;12.30;99.90;;;;;;5022870;28;20057;-64
2024/02/10 12:37:47;;;;;;;25.52;13.93;;;12.30;99.90;;;;;;5003340;28;20101;-64
2024/02/10 12:40:17;;;;;;;28.83;13.93;;;12.30;99.90;;;;;;5009569;28;20096;-63
2024/02/10 12:42:43;;;;;;;24.80;13.18;;;12.30;99.90;;;;;;5022111;28;20124;-64
2024/02/10 12:45:17;;;;;;;24.75;13.88;;;12.30;99.90;;;;;;5021744;28;20580;-64